Terminal Aerodrome Forecast
Issued by NWS

Home | Current Version | Previous Version | Text Only | Print | Product List | Glossary On
Versions: 1 2 3 4 5 6 7 8 9 10 11 12 13 14 15 16
000
FTUS42 KMLB 022332
TAFSUA
TAF
KSUA 022332Z 0300/0324 06007KT P6SM SCT020
      TEMPO 0310/0313 4SM BR SCT002
     FM031400 10011KT P6SM SCT025=

USA.gov is the U.S. government's official web portal to all federal, state and local government web resources and services.